Time;durP1;ratioP1;P1;durP2;ratioP2;P2;SDS_P1;SDS_P2;PMS_P1;PMS_P2;Temp;Humidity;BMP_temperature;BMP_pressure;BME280_temperature;BME280_humidity;BME280_pressure;Samples;Min_cycle;Max_cycle;Signal;HPM_P1;HPM_P2
2023/09/05 00:00:16;;;;;;;;;;;;;;;;;;1045120;28;3857;-52
2023/09/05 00:01:07;;;;;;;;;;;;;;;;;;1041947;28;4113;-49
2023/09/05 00:01:38;;;;;;;;;;;;;;;;;;1040726;28;3864;-52
2023/09/05 00:02:08;;;;;;;;;;;;;;;;;;1041628;28;2744;-53
2023/09/05 00:02:39;;;;;;;;;;;;;;;;;;1043623;28;3855;-51
2023/09/05 00:03:09;;;;;;;;;;;;;;;;;;1045225;28;3396;-50
2023/09/05 00:03:40;;;;;;;;;;;;;;;;;;1045950;28;3982;-50
2023/09/05 00:04:10;;;;;;;;;;;;;;;;;;1046500;28;3098;-47
2023/09/05 00:04:42;;;;;;;;;;;;;;;;;;1047116;28;3985;-54
2023/09/05 00:05:13;;;;;;;;;;;;;;;;;;1047496;28;1437;-48
2023/09/05 00:05:43;;;;;;;;;;;;;;;;;;1044760;28;4050;-54
2023/09/05 00:06:13;;;;;;;;;;;;;;;;;;1044843;28;3228;-51
2023/09/05 00:06:44;;;;;;;;;;;;;;;;;;1042708;28;4052;-54
2023/09/05 00:07:16;;;;;;;;;;;;;;;;;;1042426;28;3077;-50
2023/09/05 00:07:47;;;;;;;;;;;;;;;;;;1040733;28;4030;-54
2023/09/05 00:08:18;;;;;;;;;;;;;;;;;;1041464;28;3209;-51
2023/09/05 00:08:48;;;;;;;;;;;;;;;;;;1040952;28;3763;-50
2023/09/05 00:09:19;;;;;;;;;;;;;;;;;;1040411;28;3179;-52
2023/09/05 00:09:49;;;;;;;;;;;;;;;;;;1041621;28;4032;-54
2023/09/05 00:10:20;;;;;;;;;;;;;;;;;;1042006;28;3320;-49
2023/09/05 00:10:50;;;;;;;;;;;;;;;;;;1041294;28;4393;-51
2023/09/05 00:11:20;;;;;;;;;;;;;;;;;;1042195;28;2026;-46
2023/09/05 00:11:50;;;;;;;;;;;;;;;;;;1042098;28;4277;-51
2023/09/05 00:12:21;;;;;;;;;;;;;;;;;;1041516;28;3200;-52
2023/09/05 00:12:51;;;;;;;;;;;;;;;;;;1043073;28;3728;-46
2023/09/05 00:13:21;;;;;;;;;;;;;;;;;;1039955;28;3207;-49
2023/09/05 00:13:51;;;;;;;;;;;;;;;;;;1043296;28;3885;-49
2023/09/05 00:14:22;;;;;;;;;;;;;;;;;;1039996;28;3082;-50
2023/09/05 00:14:52;;;;;;;;;;;;;;;;;;1042354;28;3786;-52
2023/09/05 00:15:23;;;;;;;;;;;;;;;;;;1040351;28;3786;-53
2023/09/05 00:15:53;;;;;;;;;;;;;;;;;;1042072;28;4012;-51
2023/09/05 00:16:23;;;;;;;;;;;;;;;;;;1042467;28;2814;-50
2023/09/05 00:16:53;;;;;;;;;;;;;;;;;;1042045;28;4064;-52
2023/09/05 00:17:24;;;;;;;;;;;;;;;;;;1042154;28;3150;-50
2023/09/05 00:17:54;;;;;;;;;;;;;;;;;;1044134;28;3901;-50
2023/09/05 00:18:24;;;;;;;;;;;;;;;;;;1045061;28;3435;-49
2023/09/05 00:18:55;;;;;;;;;;;;;;;;;;1044888;28;4086;-54
2023/09/05 00:19:25;;;;;;;;;;;;;;;;;;1045392;28;3643;-48
2023/09/05 00:19:55;;;;;;;;;;;;;;;;;;1047482;28;3878;-53
2023/09/05 00:20:26;;;;;;;;;;;;;;;;;;1046443;28;3487;-48
2023/09/05 00:20:56;;;;;;;;;;;;;;;;;;1044755;28;3950;-51
2023/09/05 00:21:27;;;;;;;;;;;;;;;;;;1044396;28;4031;-47
2023/09/05 00:21:57;;;;;;;;;;;;;;;;;;1046743;28;3209;-47
2023/09/05 00:22:27;;;;;;;;;;;;;;;;;;1041368;28;3786;-49
2023/09/05 00:22:57;;;;;;;;;;;;;;;;;;1037086;28;3165;-50
2023/09/05 00:23:28;;;;;;;;;;;;;;;;;;1038508;28;4001;-54
2023/09/05 00:24:18;;;;;;;;;;;;;;;;;;1039458;28;3330;-48
2023/09/05 00:24:49;;;;;;;;;;;;;;;;;;1044307;28;3918;-53
2023/09/05 00:25:19;;;;;;;;;;;;;;;;;;1045851;28;3082;-56
2023/09/05 00:25:49;;;;;;;;;;;;;;;;;;1044864;28;4188;-53
2023/09/05 00:26:20;;;;;;;;;;;;;;;;;;1044223;28;3228;-48
2023/09/05 00:26:50;;;;;;;;;;;;;;;;;;1043988;28;4145;-50
2023/09/05 00:27:20;;;;;;;;;;;;;;;;;;1044810;28;3169;-51
2023/09/05 00:27:50;;;;;;;;;;;;;;;;;;1045887;28;3801;-52
2023/09/05 00:28:22;;;;;;;;;;;;;;;;;;1047632;28;3168;-54
2023/09/05 00:28:52;;;;;;;;;;;;;;;;;;1043251;28;4161;-47
2023/09/05 00:29:23;;;;;;;;;;;;;;;;;;1045531;28;3259;-51
2023/09/05 00:29:55;;;;;;;;;;;;;;;;;;1045010;28;3935;-50
2023/09/05 00:30:26;;;;;;;;;;;;;;;;;;1043760;28;3382;-54
2023/09/05 00:30:57;;;;;;;;;;;;;;;;;;1043857;28;3841;-50
2023/09/05 00:31:27;;;;;;;;;;;;;;;;;;1044718;28;4182;-52
2023/09/05 00:32:00;;;;;;;;;;;;;;;;;;1042735;28;3148;-47
2023/09/05 00:32:32;;;;;;;;;;;;;;;;;;1041650;28;3879;-51
2023/09/05 00:33:03;;;;;;;;;;;;;;;;;;1042541;28;3373;-52
2023/09/05 00:33:33;;;;;;;;;;;;;;;;;;1040694;28;4163;-52
2023/09/05 00:34:03;;;;;;;;;;;;;;;;;;1043502;28;1741;-52
2023/09/05 00:34:35;;;;;;;;;;;;;;;;;;1040676;28;4002;-51
2023/09/05 00:35:05;;;;;;;;;;;;;;;;;;1041747;28;1684;-53
2023/09/05 00:35:35;;;;;;;;;;;;;;;;;;1040120;28;3855;-51
2023/09/05 00:36:06;;;;;;;;;;;;;;;;;;1042256;28;3202;-53
2023/09/05 00:36:36;;;;;;;;;;;;;;;;;;1042967;28;4062;-53
2023/09/05 00:37:07;;;;;;;;;;;;;;;;;;1043026;28;1805;-52
2023/09/05 00:37:37;;;;;;;;;;;;;;;;;;1040674;28;3870;-48
2023/09/05 00:38:07;;;;;;;;;;;;;;;;;;1042183;28;3666;-50
2023/09/05 00:38:38;;;;;;;;;;;;;;;;;;1041945;28;4065;-53
2023/09/05 00:39:09;;;;;;;;;;;;;;;;;;1041327;28;3202;-50
2023/09/05 00:39:40;;;;;;;;;;;;;;;;;;1042384;28;4058;-47
2023/09/05 00:40:10;;;;;;;;;;;;;;;;;;1040533;28;3527;-53
2023/09/05 00:40:41;;;;;;;;;;;;;;;;;;1042004;28;3891;-53
2023/09/05 00:41:11;;;;;;;;;;;;;;;;;;1042378;28;3287;-52
2023/09/05 00:41:42;;;;;;;;;;;;;;;;;;1042822;28;3817;-48
2023/09/05 00:42:13;;;;;;;;;;;;;;;;;;1042524;28;3197;-46
2023/09/05 00:42:43;;;;;;;;;;;;;;;;;;1042679;28;3863;-54
2023/09/05 00:43:14;;;;;;;;;;;;;;;;;;1041220;28;1786;-49
2023/09/05 00:43:44;;;;;;;;;;;;;;;;;;1042757;28;3962;-49
2023/09/05 00:44:15;;;;;;;;;;;;;;;;;;1043126;28;1743;-50
2023/09/05 00:44:49;;;;;;;;;;;;;;;;;;1041823;28;3895;-49
2023/09/05 00:45:19;;;;;;;;;;;;;;;;;;1040743;28;3489;-47
2023/09/05 00:45:51;;;;;;;;;;;;;;;;;;1042396;28;4054;-46
2023/09/05 00:46:22;;;;;;;;;;;;;;;;;;1042473;28;2952;-50
2023/09/05 00:46:54;;;;;;;;;;;;;;;;;;1042052;28;3919;-50
2023/09/05 00:47:27;;;;;;;;;;;;;;;;;;1039157;28;3741;-50
2023/09/05 00:48:00;;;;;;;;;;;;;;;;;;1040423;28;4167;-46
2023/09/05 00:48:32;;;;;;;;;;;;;;;;;;1039407;28;3995;-49
2023/09/05 00:49:02;;;;;;;;;;;;;;;;;;1039618;28;3689;-49
2023/09/05 00:49:39;;;;;;;;;;;;;;;;;;1040905;28;3999;-53
2023/09/05 00:50:10;;;;;;;;;;;;;;;;;;1041840;28;3392;-51
2023/09/05 00:50:41;;;;;;;;;;;;;;;;;;1040486;28;4074;-49
2023/09/05 00:51:12;;;;;;;;;;;;;;;;;;1042532;28;2376;-51
2023/09/05 00:51:44;;;;;;;;;;;;;;;;;;1040806;28;4001;-54
2023/09/05 00:52:14;;;;;;;;;;;;;;;;;;1043712;28;1747;-51
2023/09/05 00:52:45;;;;;;;;;;;;;;;;;;1039799;28;3987;-51
2023/09/05 00:53:15;;;;;;;;;;;;;;;;;;1043463;28;1760;-47
2023/09/05 00:53:45;;;;;;;;;;;;;;;;;;1039690;28;4081;-57
2023/09/05 00:54:16;;;;;;;;;;;;;;;;;;1042126;28;3635;-48
2023/09/05 00:54:47;;;;;;;;;;;;;;;;;;1041824;28;3895;-47
2023/09/05 00:55:18;;;;;;;;;;;;;;;;;;1041277;28;3382;-51
2023/09/05 00:55:48;;;;;;;;;;;;;;;;;;1041436;28;4169;-49
2023/09/05 00:56:18;;;;;;;;;;;;;;;;;;1041900;28;2950;-52
2023/09/05 00:56:49;;;;;;;;;;;;;;;;;;1042768;28;4041;-52
2023/09/05 00:57:19;;;;;;;;;;;;;;;;;;1041829;28;3077;-53
2023/09/05 00:57:49;;;;;;;;;;;;;;;;;;1041610;28;3830;-50
2023/09/05 00:58:20;;;;;;;;;;;;;;;;;;1040901;28;3086;-49
2023/09/05 00:58:51;;;;;;;;;;;;;;;;;;1042378;28;4361;-54
2023/09/05 00:59:21;;;;;;;;;;;;;;;;;;1041693;28;3192;-53
2023/09/05 00:59:51;;;;;;;;;;;;;;;;;;1041904;28;4114;-47
2023/09/05 01:00:22;;;;;;;;;;;;;;;;;;1040484;28;3091;-52
2023/09/05 01:00:52;;;;;;;;;;;;;;;;;;1042640;28;4322;-50
2023/09/05 01:01:22;;;;;;;;;;;;;;;;;;1042659;28;3783;-48
2023/09/05 01:01:55;;;;;;;;;;;;;;;;;;1040926;28;3858;-56
2023/09/05 01:02:25;;;;;;;;;;;;;;;;;;1039399;28;3485;-52
2023/09/05 01:02:56;;;;;;;;;;;;;;;;;;1037835;28;5130;-49
2023/09/05 01:03:26;;;;;;;;;;;;;;;;;;1044626;28;3730;-51
2023/09/05 01:03:57;;;;;;;;;;;;;;;;;;1045407;28;4025;-51
2023/09/05 01:04:29;;;;;;;;;;;;;;;;;;1042399;28;4391;-48
2023/09/05 01:04:59;;;;;;;;;;;;;;;;;;1039004;28;2955;-49
2023/09/05 01:05:31;;;;;;;;;;;;;;;;;;1040715;28;4532;-49
2023/09/05 01:06:04;;;;;;;;;;;;;;;;;;1041041;28;3798;-54
2023/09/05 01:06:53;;;;;;;;;;;;;;;;;;1042481;28;4066;-48
2023/09/05 01:07:33;;;;;;;;;;;;;;;;;;1041055;28;3063;-49
2023/09/05 01:08:09;;;;;;;;;;;;;;;;;;1039971;28;3835;-52
2023/09/05 01:08:58;;;;;;;;;;;;;;;;;;1040771;28;5231;-54
2023/09/05 01:09:42;;;;;;;;;;;;;;;;;;1038315;28;4072;-51
2023/09/05 01:10:17;;;;;;;;;;;;;;;;;;1042808;28;3446;-53
2023/09/05 01:11:00;;;;;;;;;;;;;;;;;;1040260;28;3937;-49
2023/09/05 01:11:31;;;;;;;;;;;;;;;;;;1041325;28;3926;-52
2023/09/05 01:12:01;;;;;;;;;;;;;;;;;;1043386;28;1622;-47
2023/09/05 01:12:32;;;;;;;;;;;;;;;;;;1042704;28;4055;-51
2023/09/05 01:13:02;;;;;;;;;;;;;;;;;;1039262;28;3397;-51
2023/09/05 01:13:32;;;;;;;;;;;;;;;;;;1039804;28;4179;-53
2023/09/05 01:14:02;;;;;;;;;;;;;;;;;;1043178;28;1662;-49
2023/09/05 01:14:33;;;;;;;;;;;;;;;;;;1040078;28;4045;-49
2023/09/05 01:15:04;;;;;;;;;;;;;;;;;;1040661;28;3458;-53
2023/09/05 01:15:34;;;;;;;;;;;;;;;;;;1040005;28;3821;-52
2023/09/05 01:16:04;;;;;;;;;;;;;;;;;;1041054;28;3589;-49
2023/09/05 01:16:34;;;;;;;;;;;;;;;;;;1041328;28;4130;-49
2023/09/05 01:17:05;;;;;;;;;;;;;;;;;;1042488;28;3036;-54
2023/09/05 01:17:36;;;;;;;;;;;;;;;;;;1039119;28;3973;-50
2023/09/05 01:18:06;;;;;;;;;;;;;;;;;;1040722;28;3860;-50
2023/09/05 01:18:40;;;;;;;;;;;;;;;;;;1040155;28;3938;-47
2023/09/05 01:19:12;;;;;;;;;;;;;;;;;;1040318;28;3954;-52
2023/09/05 01:19:42;;;;;;;;;;;;;;;;;;1041226;28;3783;-51
2023/09/05 01:20:16;;;;;;;;;;;;;;;;;;1044326;28;1727;-49
2023/09/05 01:21:04;;;;;;;;;;;;;;;;;;1040309;28;3807;-50
2023/09/05 01:21:39;;;;;;;;;;;;;;;;;;1041184;28;4052;-47
2023/09/05 01:22:16;;;;;;;;;;;;;;;;;;1043471;28;1475;-50
2023/09/05 01:22:58;;;;;;;;;;;;;;;;;;1039579;28;3786;-54
2023/09/05 01:23:31;;;;;;;;;;;;;;;;;;1039784;28;3916;-47
2023/09/05 01:24:20;;;;;;;;;;;;;;;;;;1043537;28;4300;-50
2023/09/05 01:24:50;;;;;;;;;;;;;;;;;;1039502;28;4107;-51
2023/09/05 01:25:21;;;;;;;;;;;;;;;;;;1040561;28;3153;-53
2023/09/05 01:25:51;;;;;;;;;;;;;;;;;;1042532;28;3911;-46
2023/09/05 01:26:22;;;;;;;;;;;;;;;;;;1041924;28;3080;-50
2023/09/05 01:26:53;;;;;;;;;;;;;;;;;;1040028;28;3698;-51
2023/09/05 01:27:26;;;;;;;;;;;;;;;;;;1040220;28;3237;-50
2023/09/05 01:27:59;;;;;;;;;;;;;;;;;;1042349;28;4073;-51
2023/09/05 01:28:31;;;;;;;;;;;;;;;;;;1040736;28;3858;-56
2023/09/05 01:29:02;;;;;;;;;;;;;;;;;;1040320;28;3488;-49
2023/09/05 01:29:36;;;;;;;;;;;;;;;;;;1042725;28;3921;-48
2023/09/05 01:30:08;;;;;;;;;;;;;;;;;;1038988;28;3129;-53
2023/09/05 01:30:40;;;;;;;;;;;;;;;;;;1039686;28;3983;-48
2023/09/05 01:31:10;;;;;;;;;;;;;;;;;;1041187;28;3052;-53
2023/09/05 01:31:42;;;;;;;;;;;;;;;;;;1040316;28;3875;-51
2023/09/05 01:32:13;;;;;;;;;;;;;;;;;;1041663;28;3144;-47
2023/09/05 01:32:44;;;;;;;;;;;;;;;;;;1041361;28;3807;-51
2023/09/05 01:33:15;;;;;;;;;;;;;;;;;;1039157;28;3180;-48
2023/09/05 01:33:46;;;;;;;;;;;;;;;;;;1041858;28;3986;-50
2023/09/05 01:34:16;;;;;;;;;;;;;;;;;;1040882;28;3185;-51
2023/09/05 01:34:47;;;;;;;;;;;;;;;;;;1045351;28;4124;-50
2023/09/05 01:35:18;;;;;;;;;;;;;;;;;;1045690;28;3021;-47
2023/09/05 01:35:48;;;;;;;;;;;;;;;;;;1038828;28;4093;-51
2023/09/05 01:36:18;;;;;;;;;;;;;;;;;;1037608;28;3427;-48
2023/09/05 01:36:49;;;;;;;;;;;;;;;;;;1040959;28;4022;-52
2023/09/05 01:37:19;;;;;;;;;;;;;;;;;;1041953;28;1821;-52
2023/09/05 01:37:49;;;;;;;;;;;;;;;;;;1044926;28;4084;-54
2023/09/05 01:38:19;;;;;;;;;;;;;;;;;;1046599;28;2224;-49
2023/09/05 01:38:50;;;;;;;;;;;;;;;;;;1045877;28;4071;-54
2023/09/05 01:39:20;;;;;;;;;;;;;;;;;;1042750;28;3189;-52
2023/09/05 01:39:50;;;;;;;;;;;;;;;;;;1045190;28;3859;-51
2023/09/05 01:40:21;;;;;;;;;;;;;;;;;;1044871;28;3032;-53
2023/09/05 01:40:51;;;;;;;;;;;;;;;;;;1045364;28;3697;-54
2023/09/05 01:41:21;;;;;;;;;;;;;;;;;;1045018;28;3533;-50
2023/09/05 01:41:51;;;;;;;;;;;;;;;;;;1045080;28;3723;-49
2023/09/05 01:42:21;;;;;;;;;;;;;;;;;;1046809;28;3509;-52
2023/09/05 01:42:52;;;;;;;;;;;;;;;;;;1043267;28;3920;-50
2023/09/05 01:43:22;;;;;;;;;;;;;;;;;;1047698;28;1557;-50
2023/09/05 01:43:52;;;;;;;;;;;;;;;;;;1045555;28;3760;-52
2023/09/05 01:44:23;;;;;;;;;;;;;;;;;;1047122;28;1704;-48
2023/09/05 01:44:53;;;;;;;;;;;;;;;;;;1046684;28;3777;-49
2023/09/05 01:45:23;;;;;;;;;;;;;;;;;;1044881;28;3259;-51
2023/09/05 01:45:53;;;;;;;;;;;;;;;;;;1045457;28;3852;-49
2023/09/05 01:46:25;;;;;;;;;;;;;;;;;;1045558;28;3534;-52
2023/09/05 01:46:55;;;;;;;;;;;;;;;;;;1046791;28;4052;-52
2023/09/05 01:47:26;;;;;;;;;;;;;;;;;;1046438;28;2812;-52
2023/09/05 01:47:56;;;;;;;;;;;;;;;;;;1045470;28;3699;-50
2023/09/05 01:48:26;;;;;;;;;;;;;;;;;;1044822;28;3231;-48
2023/09/05 01:48:57;;;;;;;;;;;;;;;;;;1038519;28;3756;-49
2023/09/05 01:49:27;;;;;;;;;;;;;;;;;;1041737;28;3799;-50
2023/09/05 01:49:57;;;;;;;;;;;;;;;;;;1043201;28;1863;-50
2023/09/05 01:50:31;;;;;;;;;;;;;;;;;;1038884;28;4037;-51
2023/09/05 01:51:01;;;;;;;;;;;;;;;;;;1040630;28;3165;-51
2023/09/05 01:51:31;;;;;;;;;;;;;;;;;;1041072;28;3941;-52
2023/09/05 01:52:01;;;;;;;;;;;;;;;;;;1042926;28;1739;-50
2023/09/05 01:52:32;;;;;;;;;;;;;;;;;;1041924;28;4051;-48
2023/09/05 01:53:02;;;;;;;;;;;;;;;;;;1046741;28;3121;-47
2023/09/05 01:53:32;;;;;;;;;;;;;;;;;;1045662;28;3954;-52
2023/09/05 01:54:03;;;;;;;;;;;;;;;;;;1044770;28;3098;-52
2023/09/05 01:54:37;;;;;;;;;;;;;;;;;;1043127;28;3760;-50
2023/09/05 01:55:08;;;;;;;;;;;;;;;;;;1046764;28;2940;-54
2023/09/05 01:55:38;;;;;;;;;;;;;;;;;;1044010;28;3895;-55
2023/09/05 01:56:08;;;;;;;;;;;;;;;;;;1046241;28;1631;-47
2023/09/05 01:56:39;;;;;;;;;;;;;;;;;;1044269;28;4139;-50
2023/09/05 01:57:09;;;;;;;;;;;;;;;;;;1046254;28;2072;-47
2023/09/05 01:57:39;;;;;;;;;;;;;;;;;;1044773;28;3821;-47
2023/09/05 01:58:09;;;;;;;;;;;;;;;;;;1046051;28;3123;-53
2023/09/05 01:58:40;;;;;;;;;;;;;;;;;;1044394;28;4150;-55
2023/09/05 01:59:11;;;;;;;;;;;;;;;;;;1045694;28;3089;-56
2023/09/05 01:59:41;;;;;;;;;;;;;;;;;;1044928;28;3999;-54
2023/09/05 02:00:12;;;;;;;;;;;;;;;;;;1046064;28;3035;-57
2023/09/05 02:00:42;;;;;;;;;;;;;;;;;;1049391;28;4217;-55
2023/09/05 02:01:12;;;;;;;;;;;;;;;;;;1049487;28;3113;-51
2023/09/05 02:01:42;;;;;;;;;;;;;;;;;;1049708;28;3900;-52
2023/09/05 02:02:13;;;;;;;;;;;;;;;;;;1049278;28;3457;-46
2023/09/05 02:02:43;;;;;;;;;;;;;;;;;;1045577;28;4103;-52
2023/09/05 02:03:13;;;;;;;;;;;;;;;;;;1047311;28;2438;-50
2023/09/05 02:03:44;;;;;;;;;;;;;;;;;;1043059;28;3781;-52
2023/09/05 02:04:14;;;;;;;;;;;;;;;;;;1046413;28;3373;-52
2023/09/05 02:04:45;;;;;;;;;;;;;;;;;;1045452;28;4101;-51
2023/09/05 02:05:15;;;;;;;;;;;;;;;;;;1040358;28;3045;-50
2023/09/05 02:05:45;;;;;;;;;;;;;;;;;;1041213;28;4063;-52
2023/09/05 02:06:16;;;;;;;;;;;;;;;;;;1037929;28;2749;-52
2023/09/05 02:06:47;;;;;;;;;;;;;;;;;;1036576;28;4116;-51
2023/09/05 02:07:18;;;;;;;;;;;;;;;;;;1040138;28;3155;-49
2023/09/05 02:07:49;;;;;;;;;;;;;;;;;;1041500;28;4031;-53
2023/09/05 02:08:20;;;;;;;;;;;;;;;;;;1045406;28;3117;-51
2023/09/05 02:08:50;;;;;;;;;;;;;;;;;;1045468;28;4021;-50
2023/09/05 02:09:21;;;;;;;;;;;;;;;;;;1045156;28;3217;-48
2023/09/05 02:09:51;;;;;;;;;;;;;;;;;;1046174;28;4039;-51
2023/09/05 02:10:21;;;;;;;;;;;;;;;;;;1044292;28;3197;-52
2023/09/05 02:10:52;;;;;;;;;;;;;;;;;;1045586;28;3749;-54
2023/09/05 02:11:22;;;;;;;;;;;;;;;;;;1046785;28;1935;-52
2023/09/05 02:11:52;;;;;;;;;;;;;;;;;;1046208;28;4036;-48
2023/09/05 02:12:22;;;;;;;;;;;;;;;;;;1043259;28;3165;-49
2023/09/05 02:12:53;;;;;;;;;;;;;;;;;;1045640;28;4468;-53
2023/09/05 02:13:23;;;;;;;;;;;;;;;;;;1046958;28;2812;-50
2023/09/05 02:13:53;;;;;;;;;;;;;;;;;;1045339;28;3989;-52
2023/09/05 02:14:23;;;;;;;;;;;;;;;;;;1043443;28;3157;-53
2023/09/05 02:14:53;;;;;;;;;;;;;;;;;;1046093;28;4108;-49
2023/09/05 02:15:24;;;;;;;;;;;;;;;;;;1044860;28;3629;-52
2023/09/05 02:15:54;;;;;;;;;;;;;;;;;;1045520;28;3741;-50
2023/09/05 02:16:25;;;;;;;;;;;;;;;;;;1043907;28;3069;-56
2023/09/05 02:16:55;;;;;;;;;;;;;;;;;;1045416;28;3953;-48
2023/09/05 02:17:30;;;;;;;;;;;;;;;;;;1045670;28;3084;-56
2023/09/05 02:18:02;;;;;;;;;;;;;;;;;;1044532;28;3963;-53
2023/09/05 02:18:32;;;;;;;;;;;;;;;;;;1044233;28;3884;-51
2023/09/05 02:19:02;;;;;;;;;;;;;;;;;;1045183;28;3423;-47
2023/09/05 02:19:33;;;;;;;;;;;;;;;;;;1046210;28;4090;-50
2023/09/05 02:20:03;;;;;;;;;;;;;;;;;;1045710;28;3386;-51
2023/09/05 02:20:33;;;;;;;;;;;;;;;;;;1047178;28;4022;-50
2023/09/05 02:21:04;;;;;;;;;;;;;;;;;;1046448;28;3208;-52
2023/09/05 02:21:34;;;;;;;;;;;;;;;;;;1045538;28;4105;-46
2023/09/05 02:22:04;;;;;;;;;;;;;;;;;;1045909;28;3037;-53
2023/09/05 02:22:35;;;;;;;;;;;;;;;;;;1046509;28;3947;-52
2023/09/05 02:23:05;;;;;;;;;;;;;;;;;;1047227;28;1724;-49
2023/09/05 02:23:35;;;;;;;;;;;;;;;;;;1046783;28;4029;-49
2023/09/05 02:24:05;;;;;;;;;;;;;;;;;;1043890;28;3109;-53
2023/09/05 02:24:36;;;;;;;;;;;;;;;;;;1045035;28;4004;-53
2023/09/05 02:25:06;;;;;;;;;;;;;;;;;;1045242;28;3418;-53
2023/09/05 02:25:36;;;;;;;;;;;;;;;;;;1046250;28;4033;-52
2023/09/05 02:26:07;;;;;;;;;;;;;;;;;;1045465;28;3533;-51
2023/09/05 02:26:37;;;;;;;;;;;;;;;;;;1046772;28;4139;-53
2023/09/05 02:27:07;;;;;;;;;;;;;;;;;;1046872;28;2738;-49
2023/09/05 02:27:38;;;;;;;;;;;;;;;;;;1044086;28;3974;-52
2023/09/05 02:28:08;;;;;;;;;;;;;;;;;;1046544;28;3402;-48
2023/09/05 02:28:38;;;;;;;;;;;;;;;;;;1041957;28;4079;-50
2023/09/05 02:29:09;;;;;;;;;;;;;;;;;;1042605;28;1972;-53
2023/09/05 02:29:39;;;;;;;;;;;;;;;;;;1038481;28;4050;-50
2023/09/05 02:30:09;;;;;;;;;;;;;;;;;;1041440;28;3095;-51
2023/09/05 02:30:40;;;;;;;;;;;;;;;;;;1044561;28;4051;-54
2023/09/05 02:31:11;;;;;;;;;;;;;;;;;;1047136;28;3177;-50
2023/09/05 02:31:41;;;;;;;;;;;;;;;;;;1042666;28;4144;-49
2023/09/05 02:32:11;;;;;;;;;;;;;;;;;;1045386;28;3635;-52
2023/09/05 02:32:43;;;;;;;;;;;;;;;;;;1044744;28;3892;-49
2023/09/05 02:33:13;;;;;;;;;;;;;;;;;;1047168;28;1853;-53
2023/09/05 02:33:44;;;;;;;;;;;;;;;;;;1044891;28;3872;-51
2023/09/05 02:34:14;;;;;;;;;;;;;;;;;;1045226;28;3502;-54
2023/09/05 02:34:50;;;;;;;;;;;;;;;;;;1044989;28;3989;-48
2023/09/05 02:35:27;;;;;;;;;;;;;;;;;;1046007;28;3550;-53
2023/09/05 02:36:05;;;;;;;;;;;;;;;;;;1046505;28;3718;-52
2023/09/05 02:36:35;;;;;;;;;;;;;;;;;;1045867;28;4012;-51
2023/09/05 02:37:05;;;;;;;;;;;;;;;;;;1046216;28;3440;-51
2023/09/05 02:37:36;;;;;;;;;;;;;;;;;;1046585;28;3797;-51
2023/09/05 02:38:07;;;;;;;;;;;;;;;;;;1047830;28;1724;-53
2023/09/05 02:38:37;;;;;;;;;;;;;;;;;;1045480;28;4454;-51
2023/09/05 02:39:07;;;;;;;;;;;;;;;;;;1046325;28;3001;-49
2023/09/05 02:39:37;;;;;;;;;;;;;;;;;;1045331;28;3781;-54
2023/09/05 02:40:09;;;;;;;;;;;;;;;;;;1046206;28;3261;-53
2023/09/05 02:40:43;;;;;;;;;;;;;;;;;;1043986;28;3805;-53
2023/09/05 02:41:14;;;;;;;;;;;;;;;;;;1046282;28;3464;-56
2023/09/05 02:41:45;;;;;;;;;;;;;;;;;;1046468;28;4034;-50
2023/09/05 02:42:16;;;;;;;;;;;;;;;;;;1046508;28;3186;-48
2023/09/05 02:42:46;;;;;;;;;;;;;;;;;;1046360;28;3962;-57
2023/09/05 02:43:16;;;;;;;;;;;;;;;;;;1048007;28;1804;-49
2023/09/05 02:43:46;;;;;;;;;;;;;;;;;;1048018;28;3845;-53
2023/09/05 02:44:16;;;;;;;;;;;;;;;;;;1046052;28;3309;-47
2023/09/05 02:44:49;;;;;;;;;;;;;;;;;;1046446;28;3877;-47
2023/09/05 02:45:20;;;;;;;;;;;;;;;;;;1045643;28;4309;-50
2023/09/05 02:45:51;;;;;;;;;;;;;;;;;;1047397;28;3962;-48
2023/09/05 02:46:22;;;;;;;;;;;;;;;;;;1046516;28;3451;-53
2023/09/05 02:46:52;;;;;;;;;;;;;;;;;;1047026;28;3897;-49
2023/09/05 02:47:22;;;;;;;;;;;;;;;;;;1047562;28;3683;-49
2023/09/05 02:47:54;;;;;;;;;;;;;;;;;;1046073;28;3884;-50
2023/09/05 02:48:25;;;;;;;;;;;;;;;;;;1046348;28;3396;-49
2023/09/05 02:48:55;;;;;;;;;;;;;;;;;;1045558;28;3890;-50
2023/09/05 02:49:25;;;;;;;;;;;;;;;;;;1051654;28;3136;-53
2023/09/05 02:49:55;;;;;;;;;;;;;;;;;;1049334;28;4146;-50
2023/09/05 02:50:26;;;;;;;;;;;;;;;;;;1048847;28;3293;-52
2023/09/05 02:51:03;;;;;;;;;;;;;;;;;;1048593;28;4139;-49
2023/09/05 02:51:33;;;;;;;;;;;;;;;;;;1047944;28;4396;-48
2023/09/05 02:52:04;;;;;;;;;;;;;;;;;;1044829;28;3070;-50
2023/09/05 02:52:34;;;;;;;;;;;;;;;;;;1045293;28;4052;-52
2023/09/05 02:53:04;;;;;;;;;;;;;;;;;;1045552;28;3388;-47
2023/09/05 02:53:35;;;;;;;;;;;;;;;;;;1044730;28;4081;-52
2023/09/05 02:54:05;;;;;;;;;;;;;;;;;;1045410;28;3359;-48
2023/09/05 02:54:35;;;;;;;;;;;;;;;;;;1045595;28;3830;-51
2023/09/05 02:55:06;;;;;;;;;;;;;;;;;;1047415;28;1514;-52
2023/09/05 02:55:43;;;;;;;;;;;;;;;;;;1045915;28;4395;-49
2023/09/05 02:56:16;;;;;;;;;;;;;;;;;;1045131;28;3558;-51
2023/09/05 02:56:46;;;;;;;;;;;;;;;;;;1046309;28;3880;-50
2023/09/05 02:57:16;;;;;;;;;;;;;;;;;;1045343;28;3364;-50
2023/09/05 02:57:46;;;;;;;;;;;;;;;;;;1046652;28;3769;-51
2023/09/05 02:58:17;;;;;;;;;;;;;;;;;;1047562;28;4007;-49
2023/09/05 02:58:48;;;;;;;;;;;;;;;;;;1045005;28;3847;-50
2023/09/05 02:59:18;;;;;;;;;;;;;;;;;;1045674;28;3634;-49
2023/09/05 02:59:52;;;;;;;;;;;;;;;;;;1046138;28;4022;-52
2023/09/05 03:00:23;;;;;;;;;;;;;;;;;;1044949;28;5136;-55
2023/09/05 03:01:07;;;;;;;;;;;;;;;;;;1047069;28;4055;-51
2023/09/05 03:01:37;;;;;;;;;;;;;;;;;;1043735;28;3786;-48
2023/09/05 03:02:07;;;;;;;;;;;;;;;;;;1045722;28;3356;-48
2023/09/05 03:02:40;;;;;;;;;;;;;;;;;;1047297;28;3956;-55
2023/09/05 03:03:10;;;;;;;;;;;;;;;;;;1046906;28;3353;-47
2023/09/05 03:03:40;;;;;;;;;;;;;;;;;;1044539;28;3822;-51
2023/09/05 03:04:10;;;;;;;;;;;;;;;;;;1046904;28;3408;-52
2023/09/05 03:04:41;;;;;;;;;;;;;;;;;;1043003;28;4042;-54
2023/09/05 03:05:11;;;;;;;;;;;;;;;;;;1042511;28;2989;-54
2023/09/05 03:05:41;;;;;;;;;;;;;;;;;;1041826;28;3820;-48
2023/09/05 03:06:15;;;;;;;;;;;;;;;;;;1040970;28;3366;-49
2023/09/05 03:06:45;;;;;;;;;;;;;;;;;;1045464;28;3778;-50
2023/09/05 03:07:16;;;;;;;;;;;;;;;;;;1043559;28;3583;-52
2023/09/05 03:07:46;;;;;;;;;;;;;;;;;;1046222;28;4187;-47
2023/09/05 03:08:16;;;;;;;;;;;;;;;;;;1046654;28;3038;-54
2023/09/05 03:08:46;;;;;;;;;;;;;;;;;;1045199;28;3762;-48
2023/09/05 03:09:17;;;;;;;;;;;;;;;;;;1046402;28;2992;-52
2023/09/05 03:09:51;;;;;;;;;;;;;;;;;;1045584;28;4084;-47
2023/09/05 03:10:21;;;;;;;;;;;;;;;;;;1046011;28;3205;-51
2023/09/05 03:10:52;;;;;;;;;;;;;;;;;;1045086;28;4147;-53
2023/09/05 03:11:22;;;;;;;;;;;;;;;;;;1046772;28;3101;-48
2023/09/05 03:11:52;;;;;;;;;;;;;;;;;;1047054;28;3737;-47
2023/09/05 03:12:23;;;;;;;;;;;;;;;;;;1045995;28;3334;-53
2023/09/05 03:12:53;;;;;;;;;;;;;;;;;;1043865;28;3743;-51
2023/09/05 03:13:23;;;;;;;;;;;;;;;;;;1045111;28;3266;-50
2023/09/05 03:13:54;;;;;;;;;;;;;;;;;;1045422;28;4014;-54
2023/09/05 03:14:24;;;;;;;;;;;;;;;;;;1046058;28;2982;-49
2023/09/05 03:14:55;;;;;;;;;;;;;;;;;;1044688;28;3816;-50
2023/09/05 03:15:25;;;;;;;;;;;;;;;;;;1044471;28;3633;-49
2023/09/05 03:15:56;;;;;;;;;;;;;;;;;;1044794;28;4005;-56
2023/09/05 03:16:26;;;;;;;;;;;;;;;;;;1047275;28;2055;-51
2023/09/05 03:16:56;;;;;;;;;;;;;;;;;;1045877;28;3758;-47
2023/09/05 03:17:27;;;;;;;;;;;;;;;;;;1044393;28;4062;-48
2023/09/05 03:17:57;;;;;;;;;;;;;;;;;;1046636;28;3328;-51
2023/09/05 03:18:27;;;;;;;;;;;;;;;;;;1045744;28;3970;-48
2023/09/05 03:18:59;;;;;;;;;;;;;;;;;;1046072;28;3137;-52
2023/09/05 03:19:29;;;;;;;;;;;;;;;;;;1046360;28;4165;-48
2023/09/05 03:20:00;;;;;;;;;;;;;;;;;;1047091;28;3428;-51
2023/09/05 03:20:30;;;;;;;;;;;;;;;;;;1046999;28;3901;-50
2023/09/05 03:21:00;;;;;;;;;;;;;;;;;;1045282;28;3453;-51
2023/09/05 03:21:31;;;;;;;;;;;;;;;;;;1044892;28;4235;-52
2023/09/05 03:22:01;;;;;;;;;;;;;;;;;;1046012;28;3759;-53
2023/09/05 03:22:31;;;;;;;;;;;;;;;;;;1041013;28;3859;-51
2023/09/05 03:23:02;;;;;;;;;;;;;;;;;;1040125;28;3624;-48
2023/09/05 03:23:32;;;;;;;;;;;;;;;;;;1042518;28;3891;-50
2023/09/05 03:24:02;;;;;;;;;;;;;;;;;;1041038;28;3683;-52
2023/09/05 03:24:33;;;;;;;;;;;;;;;;;;1047906;28;4028;-51
2023/09/05 03:25:04;;;;;;;;;;;;;;;;;;1045963;28;3465;-52
2023/09/05 03:25:34;;;;;;;;;;;;;;;;;;1047172;28;3954;-52
2023/09/05 03:26:04;;;;;;;;;;;;;;;;;;1047169;28;1804;-50
2023/09/05 03:26:35;;;;;;;;;;;;;;;;;;1051270;28;4669;-55
2023/09/05 03:27:05;;;;;;;;;;;;;;;;;;1047860;28;3429;-53
2023/09/05 03:27:35;;;;;;;;;;;;;;;;;;1047081;28;3791;-52
2023/09/05 03:28:05;;;;;;;;;;;;;;;;;;1050118;28;3389;-51
2023/09/05 03:28:42;;;;;;;;;;;;;;;;;;1045885;28;3774;-54
2023/09/05 03:29:13;;;;;;;;;;;;;;;;;;1042588;28;3122;-50
2023/09/05 03:29:43;;;;;;;;;;;;;;;;;;1046745;28;3788;-47
2023/09/05 03:30:13;;;;;;;;;;;;;;;;;;1045992;28;3402;-51
2023/09/05 03:30:44;;;;;;;;;;;;;;;;;;1046768;28;4211;-51
2023/09/05 03:31:14;;;;;;;;;;;;;;;;;;1045323;28;2986;-50
2023/09/05 03:31:44;;;;;;;;;;;;;;;;;;1047296;28;3908;-54
2023/09/05 03:32:14;;;;;;;;;;;;;;;;;;1045546;28;3713;-48
2023/09/05 03:32:45;;;;;;;;;;;;;;;;;;1051524;28;4186;-54
2023/09/05 03:33:15;;;;;;;;;;;;;;;;;;1051389;28;2942;-53
2023/09/05 03:33:45;;;;;;;;;;;;;;;;;;1048585;28;4007;-51
2023/09/05 03:34:16;;;;;;;;;;;;;;;;;;1046846;28;2876;-52
2023/09/05 03:34:48;;;;;;;;;;;;;;;;;;1041992;28;3805;-53
2023/09/05 03:35:18;;;;;;;;;;;;;;;;;;1042569;28;3664;-48
2023/09/05 03:35:49;;;;;;;;;;;;;;;;;;1040505;28;4044;-53
2023/09/05 03:36:19;;;;;;;;;;;;;;;;;;1047485;28;1552;-54
2023/09/05 03:36:49;;;;;;;;;;;;;;;;;;1046635;28;3790;-51